createdAt,value
2019-06-01T00:00:13.561Z,83.40
2019-06-01T00:02:48.311Z,83.60
2019-06-01T00:05:15.538Z,83.70
2019-06-01T00:07:44.978Z,84.70
2019-06-01T00:10:14.405Z,84.10
2019-06-01T00:12:43.761Z,84.30
2019-06-01T00:15:13.150Z,84.60
2019-06-01T00:17:43.836Z,85.50
2019-06-01T00:20:13.377Z,84.90
2019-06-01T00:22:43.290Z,85.10
2019-06-01T00:25:12.842Z,85.40
2019-06-01T00:27:42.494Z,85.60
2019-06-01T00:30:26.191Z,85.90
2019-06-01T00:32:43.212Z,85.90
2019-06-01T00:35:12.638Z,86.00
2019-06-01T00:37:43.376Z,86.20
2019-06-01T00:40:12.978Z,86.40
2019-06-01T00:42:42.503Z,86.20
2019-06-01T00:45:11.976Z,86.20
2019-06-01T00:47:42.607Z,86.30
2019-06-01T00:50:12.126Z,86.50
2019-06-01T00:52:41.501Z,86.70
2019-06-01T00:55:10.890Z,86.70
2019-06-01T00:57:40.270Z,87.00
2019-06-01T01:00:09.636Z,87.20
2019-06-01T01:02:39.131Z,87.30
2019-06-01T01:05:10.636Z,87.20
2019-06-01T01:07:40.020Z,87.10
2019-06-01T01:10:09.775Z,86.90
2019-06-01T01:12:57.077Z,86.80
2019-06-01T01:15:26.543Z,86.70
2019-06-01T01:17:56.169Z,86.70
2019-06-01T01:20:25.697Z,86.90
2019-06-01T01:22:56.401Z,87.00
2019-06-01T01:25:26.954Z,87.30
2019-06-01T01:27:57.060Z,87.20
2019-06-01T01:30:27.681Z,87.30
2019-06-01T01:32:59.094Z,87.40
2019-06-01T01:35:28.081Z,87.50
2019-06-01T01:37:58.386Z,87.50
2019-06-01T01:40:28.502Z,87.60
2019-06-01T01:42:58.943Z,87.80
2019-06-01T01:45:28.462Z,87.90
2019-06-01T01:47:59.127Z,88.20
2019-06-01T01:50:28.678Z,88.40
2019-06-01T01:52:58.996Z,88.50
2019-06-01T01:55:27.841Z,88.50
2019-06-01T01:57:57.598Z,88.40
2019-06-01T02:00:45.681Z,88.10
2019-06-01T02:03:15.196Z,88.00
2019-06-01T02:05:44.557Z,87.70
2019-06-01T02:08:14.049Z,87.40
2019-06-01T02:10:43.792Z,87.40
2019-06-01T02:13:13.066Z,87.20
2019-06-01T02:15:42.521Z,87.00
2019-06-01T02:18:11.965Z,86.80
2019-06-01T02:20:41.367Z,86.70
2019-06-01T02:23:10.744Z,86.60
2019-06-01T02:25:40.120Z,86.70
2019-06-01T02:28:09.509Z,86.50
2019-06-01T02:30:38.905Z,86.60
2019-06-01T02:33:08.281Z,86.60
2019-06-01T02:35:37.662Z,86.50
2019-06-01T02:38:07.059Z,86.50
2019-06-01T02:40:36.513Z,86.60
2019-06-01T02:43:06.793Z,86.50
2019-06-01T02:45:36.562Z,86.60
2019-06-01T02:48:06.543Z,87.40
2019-06-01T02:50:37.158Z,86.50
2019-06-01T02:53:07.630Z,86.70
2019-06-01T02:55:36.320Z,86.90
2019-06-01T02:58:06.691Z,87.00
2019-06-01T03:00:48.410Z,87.00
2019-06-01T03:03:17.788Z,87.00
2019-06-01T03:05:47.704Z,87.20
2019-06-01T03:08:17.507Z,87.30
2019-06-01T03:10:46.963Z,87.50
2019-06-01T03:13:17.198Z,87.70
2019-06-01T03:15:46.577Z,87.90
2019-06-01T03:18:15.970Z,88.00
2019-06-01T03:20:45.864Z,88.10
2019-06-01T03:23:16.885Z,88.10
2019-06-01T03:25:50.487Z,88.30
2019-06-01T03:28:22.925Z,88.40
2019-06-01T03:30:52.352Z,88.50
2019-06-01T03:33:21.708Z,88.50
2019-06-01T03:35:51.167Z,88.60
2019-06-01T03:38:20.641Z,88.80
2019-06-01T03:40:50.037Z,88.80
2019-06-01T03:43:19.420Z,88.80
2019-06-01T03:45:48.815Z,88.70
2019-06-01T03:48:18.174Z,88.90
2019-06-01T03:50:47.568Z,89.00
2019-06-01T03:53:36.733Z,89.10
2019-06-01T03:56:06.965Z,89.10
2019-06-01T03:58:36.428Z,89.30
2019-06-01T04:01:07.136Z,89.40
2019-06-01T04:03:36.471Z,89.50
2019-06-01T04:06:05.843Z,89.50
2019-06-01T04:08:35.220Z,89.50
2019-06-01T04:11:05.653Z,89.40
2019-06-01T04:13:35.320Z,89.50
2019-06-01T04:16:05.756Z,89.30
2019-06-01T04:18:35.282Z,89.40
2019-06-01T04:21:05.916Z,89.20
2019-06-01T04:23:36.430Z,89.30
2019-06-01T04:26:08.028Z,89.50
2019-06-01T04:28:38.618Z,89.70
2019-06-01T04:31:27.421Z,89.60
2019-06-01T04:33:56.794Z,89.60
2019-06-01T04:36:26.259Z,89.50
2019-06-01T04:38:55.705Z,89.30
2019-06-01T04:41:25.163Z,89.20
2019-06-01T04:43:54.534Z,89.20
2019-06-01T04:46:23.914Z,89.30
2019-06-01T04:49:06.541Z,89.50
2019-06-01T04:51:35.949Z,89.70
2019-06-01T04:54:05.350Z,89.70
2019-06-01T04:56:35.042Z,89.80
2019-06-01T04:59:04.923Z,89.80
2019-06-01T05:01:34.395Z,89.80
2019-06-01T05:04:04.893Z,89.70
2019-06-01T05:06:34.563Z,89.70
2019-06-01T05:09:07.240Z,89.70
2019-06-01T05:11:36.719Z,89.50
2019-06-01T05:14:06.074Z,89.40
2019-06-01T05:16:35.755Z,89.30
2019-06-01T05:19:06.057Z,89.20
2019-06-01T05:21:35.453Z,89.20
2019-06-01T05:24:04.838Z,89.10
2019-06-01T05:26:34.570Z,89.10
2019-06-01T05:29:04.952Z,89.20
2019-06-01T05:31:34.303Z,89.10
2019-06-01T05:34:03.695Z,89.10
2019-06-01T05:36:33.072Z,88.90
2019-06-01T05:39:02.473Z,88.80
2019-06-01T05:41:31.914Z,88.60
2019-06-01T05:44:01.998Z,88.40
2019-06-01T05:46:31.355Z,88.20
2019-06-01T05:49:00.726Z,88.00
2019-06-01T05:51:30.162Z,87.90
2019-06-01T05:53:59.546Z,87.90
2019-06-01T05:56:29.466Z,87.90
2019-06-01T05:58:58.874Z,87.70
2019-06-01T06:01:28.408Z,87.60
2019-06-01T06:03:57.792Z,87.40
2019-06-01T06:06:27.227Z,86.70
2019-06-01T06:08:57.132Z,86.60
2019-06-01T06:11:26.436Z,86.30
2019-06-01T06:13:55.854Z,85.60
2019-06-01T06:16:25.220Z,85.70
2019-06-01T06:18:54.644Z,85.20
2019-06-01T06:21:24.039Z,84.70
2019-06-01T06:23:53.542Z,84.50
2019-06-01T06:26:23.537Z,84.30
2019-06-01T06:28:53.239Z,84.00
2019-06-01T06:31:23.254Z,83.80
2019-06-01T06:33:56.541Z,83.40
2019-06-01T06:36:23.887Z,83.10
2019-06-01T06:38:53.325Z,82.80
2019-06-01T06:41:22.788Z,82.80
2019-06-01T06:43:52.239Z,83.10
2019-06-01T06:46:22.729Z,83.00
2019-06-01T06:48:52.265Z,82.50
2019-06-01T06:51:21.690Z,82.30
2019-06-01T06:53:51.257Z,81.40
2019-06-01T06:56:21.923Z,79.70
2019-06-01T06:58:51.526Z,78.40
2019-06-01T07:01:20.935Z,78.00
2019-06-01T07:03:50.272Z,77.40
2019-06-01T07:06:21.579Z,77.20
2019-06-01T07:08:51.033Z,77.40
2019-06-01T07:11:21.210Z,76.80
2019-06-01T07:13:50.644Z,76.70
2019-06-01T07:16:20.063Z,76.20
2019-06-01T07:18:50.695Z,75.80
2019-06-01T07:21:20.074Z,75.60
2019-06-01T07:23:49.450Z,75.60
2019-06-01T07:26:19.844Z,75.30
2019-06-01T07:28:49.424Z,74.50
2019-06-01T07:31:20.071Z,73.40
2019-06-01T07:33:50.768Z,73.10
2019-06-01T07:36:20.315Z,72.40
2019-06-01T07:38:49.811Z,72.50
2019-06-01T07:41:20.544Z,71.40
2019-06-01T07:43:51.130Z,71.60
2019-06-01T07:46:20.797Z,71.50
2019-06-01T07:48:51.911Z,72.10
2019-06-01T07:51:21.314Z,72.00
2019-06-01T07:53:50.738Z,71.50
2019-06-01T07:56:22.629Z,70.90
2019-06-01T07:58:53.605Z,70.20
2019-06-01T08:01:25.784Z,70.50
2019-06-01T08:03:58.401Z,70.30
2019-06-01T08:06:32.873Z,70.30
2019-06-01T08:09:06.802Z,69.90
2019-06-01T08:11:39.352Z,70.20
2019-06-01T08:14:11.303Z,70.60
2019-06-01T08:16:43.795Z,70.40
2019-06-01T08:19:16.533Z,70.00
2019-06-01T08:21:49.783Z,69.70
2019-06-01T08:24:20.376Z,69.80
2019-06-01T08:27:10.043Z,69.60
2019-06-01T08:29:39.588Z,68.70
2019-06-01T08:32:08.965Z,68.00
2019-06-01T08:34:38.334Z,67.60
2019-06-01T08:37:07.714Z,67.60
2019-06-01T08:39:37.115Z,68.00
2019-06-01T08:42:06.479Z,68.90
2019-06-01T08:44:36.120Z,69.60
2019-06-01T08:47:05.842Z,70.40
2019-06-01T08:49:35.632Z,70.40
2019-06-01T08:52:05.497Z,69.80
2019-06-01T08:54:37.367Z,70.30
2019-06-01T08:57:06.292Z,69.60
2019-06-01T08:59:35.750Z,69.00
2019-06-01T09:02:06.202Z,68.10
2019-06-01T09:04:35.565Z,67.80
2019-06-01T09:07:09.709Z,67.00
2019-06-01T09:09:48.633Z,66.40
2019-06-01T09:12:31.293Z,66.00
2019-06-01T09:15:00.765Z,67.30
2019-06-01T09:17:31.545Z,68.20
2019-06-01T09:20:01.161Z,67.10
2019-06-01T09:22:31.565Z,66.50
2019-06-01T09:25:01.138Z,66.30
2019-06-01T09:27:31.922Z,66.20
2019-06-01T09:30:13.936Z,63.80
2019-06-01T09:32:43.370Z,62.00
2019-06-01T09:35:12.748Z,61.30
2019-06-01T09:37:45.646Z,62.00
2019-06-01T09:40:13.117Z,62.90
2019-06-01T09:42:42.559Z,62.80
2019-06-01T09:45:13.525Z,62.90
2019-06-01T09:47:42.912Z,64.10
2019-06-01T09:50:13.031Z,65.40
2019-06-01T09:52:41.886Z,66.60
2019-06-01T09:55:11.214Z,68.60
2019-06-01T09:57:40.624Z,68.20
2019-06-01T10:00:10.322Z,68.30
2019-06-01T10:02:40.735Z,68.90
2019-06-01T10:05:11.293Z,69.80
2019-06-01T10:07:41.509Z,70.30
2019-06-01T10:10:12.035Z,71.30
2019-06-01T10:12:42.270Z,72.80
2019-06-01T10:15:13.055Z,73.90
2019-06-01T10:17:42.990Z,75.30
2019-06-01T10:20:12.495Z,76.20
2019-06-01T10:22:41.861Z,76.50
2019-06-01T10:25:11.239Z,76.40
2019-06-01T10:27:40.634Z,76.50
2019-06-01T10:30:09.987Z,76.70
2019-06-01T10:32:39.935Z,76.60
2019-06-01T10:35:09.569Z,76.70
2019-06-01T10:37:39.758Z,76.80
2019-06-01T10:40:09.343Z,76.70
2019-06-01T10:42:39.871Z,76.30
2019-06-01T10:45:09.830Z,76.10
2019-06-01T10:47:40.093Z,76.40
2019-06-01T10:50:09.804Z,76.90
2019-06-01T10:52:40.403Z,77.30
2019-06-01T10:55:09.883Z,76.90
2019-06-01T10:57:40.522Z,76.80
2019-06-01T11:00:10.661Z,76.50
2019-06-01T11:02:40.833Z,76.40
2019-06-01T11:05:09.836Z,75.70
2019-06-01T11:07:39.408Z,75.70
2019-06-01T11:10:10.207Z,74.60
2019-06-01T11:12:41.108Z,73.10
2019-06-01T11:15:11.895Z,71.50
2019-06-01T11:17:41.684Z,69.90
2019-06-01T11:20:11.325Z,67.70
2019-06-01T11:22:46.351Z,65.60
2019-06-01T11:25:16.081Z,65.90
2019-06-01T11:27:45.489Z,65.50
2019-06-01T11:30:15.134Z,65.20
2019-06-01T11:32:47.775Z,64.80
2019-06-01T11:35:30.361Z,65.00
2019-06-01T11:38:02.161Z,66.20
2019-06-01T11:40:32.854Z,65.50
2019-06-01T11:43:11.831Z,65.80
2019-06-01T11:45:48.575Z,65.40
2019-06-01T11:48:13.889Z,64.80
2019-06-01T11:50:48.252Z,64.10
2019-06-01T11:53:16.205Z,64.60
2019-06-01T11:55:45.722Z,64.10
2019-06-01T11:58:21.386Z,64.10
2019-06-01T12:00:56.663Z,63.60
2019-06-01T12:03:33.875Z,64.20
2019-06-01T12:06:05.671Z,63.10
2019-06-01T12:08:42.195Z,61.50
2019-06-01T12:11:11.147Z,60.50
2019-06-01T12:13:40.627Z,61.40
2019-06-01T12:16:29.511Z,61.60
2019-06-01T12:19:06.534Z,61.80
2019-06-01T12:22:05.755Z,60.10
2019-06-01T12:24:35.033Z,59.70
2019-06-01T12:27:20.351Z,59.10
2019-06-01T12:29:41.480Z,59.70
2019-06-01T12:32:20.949Z,60.10
2019-06-01T12:34:50.345Z,59.70
2019-06-01T12:37:36.158Z,58.30
2019-06-01T12:39:54.037Z,57.60
2019-06-01T12:42:21.778Z,57.90
2019-06-01T12:44:52.088Z,58.20
2019-06-01T12:47:21.686Z,58.10
2019-06-01T12:49:52.539Z,58.00
2019-06-01T12:52:22.207Z,56.50
2019-06-01T12:54:51.578Z,55.60
2019-06-01T12:57:20.972Z,55.50
2019-06-01T12:59:51.197Z,54.50
2019-06-01T13:02:20.942Z,54.60
2019-06-01T13:04:50.315Z,54.90
2019-06-01T13:07:19.701Z,54.90
2019-06-01T13:09:50.509Z,55.20
2019-06-01T13:12:19.940Z,55.90
2019-06-01T13:14:49.400Z,55.30
2019-06-01T13:17:18.797Z,54.30
2019-06-01T13:19:49.485Z,54.90
2019-06-01T13:22:19.167Z,55.50
2019-06-01T13:24:49.794Z,54.70
2019-06-01T13:27:19.325Z,54.00
2019-06-01T13:29:58.163Z,53.40
2019-06-01T13:32:27.538Z,53.10
2019-06-01T13:34:56.910Z,54.10
2019-06-01T13:37:26.361Z,54.20
2019-06-01T13:39:58.031Z,54.30
2019-06-01T13:42:26.693Z,54.50
2019-06-01T13:44:56.073Z,54.50
2019-06-01T13:47:27.038Z,54.50
2019-06-01T13:49:58.066Z,54.50
2019-06-01T13:52:27.475Z,55.00
2019-06-01T13:54:59.442Z,54.90
2019-06-01T13:57:28.785Z,54.90
2019-06-01T13:59:58.242Z,54.50
2019-06-01T14:02:27.671Z,53.90
2019-06-01T14:04:57.025Z,52.50
2019-06-01T14:07:27.564Z,52.00
2019-06-01T14:10:14.358Z,51.90
2019-06-01T14:12:45.162Z,52.90
2019-06-01T14:15:14.930Z,53.90
2019-06-01T14:17:50.123Z,54.30
2019-06-01T14:20:19.659Z,54.40
2019-06-01T14:22:49.801Z,53.80
2019-06-01T14:25:24.014Z,53.70
2019-06-01T14:27:54.404Z,54.20
2019-06-01T14:30:25.579Z,54.90
2019-06-01T14:32:54.921Z,55.00
2019-06-01T14:35:25.921Z,55.80
2019-06-01T14:37:55.283Z,56.60
2019-06-01T14:40:24.652Z,57.10
2019-06-01T14:42:55.691Z,56.60
2019-06-01T14:45:36.324Z,56.50
2019-06-01T14:48:05.739Z,56.50
2019-06-01T14:50:47.804Z,57.20
2019-06-01T14:53:18.776Z,57.30
2019-06-01T14:55:49.773Z,56.20
2019-06-01T15:01:33.250Z,56.10
2019-06-01T15:01:52.071Z,55.50
2019-06-01T15:03:48.196Z,56.40
2019-06-01T15:06:20.754Z,56.70
2019-06-01T15:09:07.658Z,56.90
2019-06-01T15:11:21.698Z,57.30
2019-06-01T15:13:52.301Z,57.90
2019-06-01T15:16:23.428Z,59.10
2019-06-01T15:18:54.470Z,58.30
2019-06-01T15:21:23.492Z,58.90
2019-06-01T15:23:53.812Z,59.80
2019-06-01T15:26:23.349Z,60.30
2019-06-01T15:28:53.134Z,60.30
2019-06-01T15:31:22.628Z,60.40
2019-06-01T15:33:53.125Z,60.90
2019-06-01T15:36:22.558Z,60.20
2019-06-01T15:38:52.016Z,59.80
2019-06-01T15:41:21.473Z,59.70
2019-06-01T15:43:50.932Z,60.00
2019-06-01T15:46:20.348Z,60.10
2019-06-01T15:48:49.779Z,60.00
2019-06-01T15:51:19.193Z,60.20
2019-06-01T15:53:48.525Z,60.40
2019-06-01T15:56:17.899Z,60.30
2019-06-01T15:58:53.131Z,60.10
2019-06-01T16:01:18.326Z,59.90
2019-06-01T16:03:47.756Z,60.10
2019-06-01T16:06:17.119Z,60.10
2019-06-01T16:08:46.498Z,59.60
2019-06-01T16:11:15.940Z,59.10
2019-06-01T16:13:45.393Z,58.90
2019-06-01T16:16:14.820Z,58.40
2019-06-01T16:18:44.574Z,57.70
2019-06-01T16:21:14.296Z,57.40
2019-06-01T16:23:49.934Z,57.30
2019-06-01T16:26:16.560Z,57.70
2019-06-01T16:28:58.688Z,57.90
2019-06-01T16:31:28.064Z,58.10
2019-06-01T16:33:58.509Z,58.10
2019-06-01T16:36:27.994Z,58.50
2019-06-01T16:39:01.659Z,57.80
2019-06-01T16:41:28.633Z,57.70
2019-06-01T16:43:58.010Z,57.80
2019-06-01T16:46:27.357Z,57.70
2019-06-01T16:48:57.487Z,57.40
2019-06-01T16:51:48.853Z,57.20
2019-06-01T16:54:18.431Z,57.40
2019-06-01T16:56:48.901Z,57.50
2019-06-01T16:59:18.767Z,57.80
2019-06-01T17:01:47.818Z,58.40
2019-06-01T17:04:17.086Z,59.10
2019-06-01T17:06:47.890Z,59.80
2019-06-01T17:09:17.766Z,59.90
2019-06-01T17:11:47.089Z,60.20
2019-06-01T17:14:16.480Z,60.20
2019-06-01T17:16:45.854Z,60.10
2019-06-01T17:19:15.278Z,59.80
2019-06-01T17:21:45.730Z,59.20
2019-06-01T17:24:15.190Z,59.10
2019-06-01T17:26:44.594Z,59.00
2019-06-01T17:29:15.193Z,58.90
2019-06-01T17:31:53.826Z,59.10
2019-06-01T17:34:15.780Z,59.80
2019-06-01T17:36:45.249Z,61.50
2019-06-01T17:39:14.611Z,63.00
2019-06-01T17:41:44.035Z,63.80
2019-06-01T17:44:13.432Z,64.40
2019-06-01T17:46:52.839Z,65.70
2019-06-01T17:49:13.950Z,66.60
2019-06-01T17:51:43.315Z,67.20
2019-06-01T17:54:40.125Z,68.30
2019-06-01T17:57:09.529Z,67.70
2019-06-01T17:59:38.994Z,68.30
2019-06-01T18:02:08.424Z,69.00
2019-06-01T18:04:39.244Z,69.50
2019-06-01T18:07:09.887Z,69.20
2019-06-01T18:09:39.572Z,69.10
2019-06-01T18:12:10.108Z,69.40
2019-06-01T18:14:39.614Z,69.60
2019-06-01T18:17:10.240Z,69.60
2019-06-01T18:19:40.752Z,69.50
2019-06-01T18:22:10.933Z,69.50
2019-06-01T18:24:41.451Z,69.70
2019-06-01T18:27:10.826Z,70.20
2019-06-01T18:29:48.078Z,70.60
2019-06-01T18:32:11.627Z,71.10
2019-06-01T18:34:41.126Z,71.40
2019-06-01T18:37:11.514Z,71.80
2019-06-01T18:39:41.109Z,72.30
2019-06-01T18:42:10.475Z,72.60
2019-06-01T18:44:39.923Z,73.00
2019-06-01T18:47:09.764Z,73.30
2019-06-01T18:49:40.667Z,74.40
2019-06-01T18:52:10.656Z,73.90
2019-06-01T18:54:40.089Z,74.40
2019-06-01T18:57:17.544Z,74.80
2019-06-01T18:59:40.663Z,75.00
2019-06-01T19:02:10.478Z,75.00
2019-06-01T19:04:39.909Z,75.30
2019-06-01T19:07:09.284Z,75.70
2019-06-01T19:09:38.685Z,76.00
2019-06-01T19:12:08.910Z,76.20
2019-06-01T19:14:37.751Z,76.60
2019-06-01T19:17:08.142Z,77.00
2019-06-01T19:19:37.725Z,77.30
2019-06-01T19:22:08.346Z,77.60
2019-06-01T19:24:37.796Z,78.10
2019-06-01T19:27:07.149Z,78.40
2019-06-01T19:29:36.613Z,78.70
2019-06-01T19:32:06.769Z,78.80
2019-06-01T19:34:35.664Z,78.80
2019-06-01T19:37:04.979Z,79.20
2019-06-01T19:39:34.434Z,79.40
2019-06-01T19:42:03.860Z,79.60
2019-06-01T19:44:36.676Z,80.00
2019-06-01T19:47:18.889Z,80.10
2019-06-01T19:49:50.019Z,80.40
2019-06-01T19:52:20.042Z,80.60
2019-06-01T19:54:49.530Z,80.70
2019-06-01T19:57:22.027Z,80.80
2019-06-01T19:59:50.403Z,81.00
2019-06-01T20:02:31.123Z,81.20
2019-06-01T20:04:50.965Z,81.50
2019-06-01T20:07:21.395Z,81.50
2019-06-01T20:09:51.034Z,81.70
2019-06-01T20:12:20.630Z,81.80
2019-06-01T20:14:50.080Z,81.80
2019-06-01T20:17:24.048Z,82.00
2019-06-01T20:19:50.629Z,82.00
2019-06-01T20:22:21.219Z,82.00
2019-06-01T20:24:51.737Z,82.20
2019-06-01T20:27:21.636Z,82.40
2019-06-01T20:29:52.427Z,82.50
2019-06-01T20:32:22.208Z,82.60
2019-06-01T20:34:51.826Z,82.70
2019-06-01T20:37:22.201Z,82.60
2019-06-01T20:39:51.815Z,82.80
2019-06-01T20:42:30.207Z,83.30
2019-06-01T20:44:52.371Z,82.60
2019-06-01T20:47:22.851Z,82.60
2019-06-01T20:49:52.457Z,82.80
2019-06-01T20:52:23.300Z,82.80
2019-06-01T20:54:52.694Z,82.90
2019-06-01T20:57:22.109Z,83.00
2019-06-01T20:59:51.521Z,83.10
2019-06-01T21:02:22.028Z,83.20
2019-06-01T21:04:51.413Z,83.40
2019-06-01T21:07:21.880Z,83.40
2019-06-01T21:09:51.322Z,83.50
2019-06-01T21:12:31.486Z,83.50
2019-06-01T21:14:51.790Z,83.50
2019-06-01T21:17:22.591Z,83.40
2019-06-01T21:19:53.218Z,83.80
2019-06-01T21:22:22.750Z,83.50
2019-06-01T21:24:52.095Z,83.50
2019-06-01T21:27:22.630Z,83.70
2019-06-01T21:30:12.874Z,83.80
2019-06-01T21:32:42.454Z,83.80
2019-06-01T21:35:11.837Z,83.80
2019-06-01T21:37:41.255Z,83.80
2019-06-01T21:40:10.647Z,83.70
2019-06-01T21:42:40.566Z,83.70
2019-06-01T21:45:10.131Z,83.60
2019-06-01T21:47:39.553Z,83.70
2019-06-01T21:50:08.940Z,84.00
2019-06-01T21:52:38.322Z,84.00
2019-06-01T21:55:08.314Z,84.00
2019-06-01T21:57:37.834Z,83.90
2019-06-01T22:00:10.744Z,84.00
2019-06-01T22:02:41.778Z,83.90
2019-06-01T22:05:11.155Z,84.00
2019-06-01T22:07:40.897Z,84.20
2019-06-01T22:10:10.206Z,84.50
2019-06-01T22:12:39.607Z,84.40
2019-06-01T22:15:28.423Z,84.30
2019-06-01T22:17:57.833Z,84.50
2019-06-01T22:20:28.211Z,84.70
2019-06-01T22:22:56.972Z,84.90
2019-06-01T22:25:26.282Z,84.90
2019-06-01T22:27:55.674Z,84.90
2019-06-01T22:30:26.328Z,84.80
2019-06-01T22:32:56.879Z,84.70
2019-06-01T22:35:26.746Z,84.70
2019-06-01T22:37:57.426Z,84.80
2019-06-01T22:40:27.295Z,84.80
2019-06-01T22:42:56.897Z,84.80
2019-06-01T22:45:27.038Z,84.80
2019-06-01T22:47:56.634Z,85.10
2019-06-01T22:50:27.042Z,85.40
2019-06-01T22:52:56.490Z,85.50
2019-06-01T22:55:26.324Z,85.70
2019-06-01T22:57:56.717Z,85.90
2019-06-01T23:00:27.721Z,86.00
2019-06-01T23:02:57.264Z,86.00
2019-06-01T23:05:27.061Z,86.00
2019-06-01T23:07:56.545Z,86.00
2019-06-01T23:10:31.317Z,86.10
2019-06-01T23:12:57.865Z,86.20
2019-06-01T23:15:27.930Z,86.20
2019-06-01T23:17:57.450Z,86.20
2019-06-01T23:20:27.928Z,86.10
2019-06-01T23:22:57.398Z,86.00
2019-06-01T23:25:26.776Z,86.00
2019-06-01T23:27:56.164Z,86.10
2019-06-01T23:30:26.311Z,86.20
2019-06-01T23:32:55.748Z,86.40
2019-06-01T23:35:26.214Z,86.50
2019-06-01T23:37:56.106Z,86.70
2019-06-01T23:40:26.485Z,86.80
2019-06-01T23:42:55.264Z,87.00
2019-06-01T23:45:24.656Z,87.10
2019-06-01T23:47:54.034Z,87.00
2019-06-01T23:50:23.420Z,87.10
2019-06-01T23:52:52.802Z,87.30
2019-06-01T23:55:23.290Z,87.30
2019-06-01T23:57:52.901Z,87.10
